createdAt,value
2022-10-23T00:01:47.535Z,99915.59
2022-10-23T00:04:20.527Z,99913.94
2022-10-23T00:06:51.377Z,99926.47
2022-10-23T00:09:22.729Z,99924.34
2022-10-23T00:11:51.732Z,99926.19
2022-10-23T00:14:25.093Z,99916.00
2022-10-23T00:16:55.685Z,99912.69
2022-10-23T00:19:23.155Z,99906.56
2022-10-23T00:21:50.666Z,99906.75
2022-10-23T00:24:18.115Z,99902.16
2022-10-23T00:26:45.626Z,99892.94
2022-10-23T00:29:13.348Z,99899.56
2022-10-23T00:31:40.848Z,99906.44
2022-10-23T00:34:08.918Z,99905.56
2022-10-23T00:36:37.884Z,99904.69
2022-10-23T00:39:06.366Z,99902.63
2022-10-23T00:41:34.614Z,99909.91
2022-10-23T00:44:11.350Z,99910.09
2022-10-23T00:46:41.984Z,99909.72
2022-10-23T00:51:48.144Z,99904.50
2022-10-23T00:54:23.873Z,99907.19
2022-10-23T00:56:56.687Z,99890.50
2022-10-23T00:59:24.431Z,99902.19
2022-10-23T01:01:52.089Z,99899.19
2022-10-23T01:04:20.234Z,99891.22
2022-10-23T01:07:13.330Z,99897.50
2022-10-23T01:10:01.566Z,99895.00
2022-10-23T01:13:03.680Z,99898.03
2022-10-23T01:15:44.639Z,99886.28
2022-10-23T01:18:40.109Z,99878.75
2022-10-23T01:21:15.709Z,99880.41
2022-10-23T01:24:09.125Z,99884.38
2022-10-23T01:26:49.977Z,99885.59
2022-10-23T01:29:40.707Z,99867.34
2022-10-23T01:32:24.616Z,99848.91
2022-10-23T01:35:33.257Z,99855.69
2022-10-23T01:38:14.694Z,99861.16
2022-10-23T01:40:56.207Z,99866.50
2022-10-23T01:43:31.743Z,99861.38
2022-10-23T01:46:05.930Z,99884.13
2022-10-23T01:48:37.143Z,99893.19
2022-10-23T01:51:09.282Z,99885.50
2022-10-23T01:53:43.115Z,99880.25
2022-10-23T01:56:18.844Z,99876.38
2022-10-23T01:58:53.473Z,99869.97
2022-10-23T02:01:29.316Z,99873.28
2022-10-23T02:06:26.693Z,99881.06
2022-10-23T02:08:54.215Z,99874.81
2022-10-23T02:11:24.602Z,99882.88
2022-10-23T02:14:04.562Z,99883.19
2022-10-23T02:16:51.364Z,99878.88
2022-10-23T02:19:32.468Z,99892.41
2022-10-23T02:22:35.045Z,99890.72
2022-10-23T02:25:19.018Z,99889.00
2022-10-23T02:27:54.309Z,99897.50
2022-10-23T02:30:25.166Z,99882.91
2022-10-23T02:33:08.744Z,99887.56
2022-10-23T02:35:36.422Z,99886.47
2022-10-23T02:38:42.491Z,99900.50
2022-10-23T02:41:42.093Z,99911.78
2022-10-23T02:44:11.099Z,99903.34
2022-10-23T02:47:36.509Z,99902.50
2022-10-23T02:50:52.200Z,99904.34
2022-10-23T02:53:53.664Z,99899.66
2022-10-23T02:56:36.692Z,99910.63
2022-10-23T02:59:26.320Z,99912.78
2022-10-23T03:02:19.388Z,99919.06
2022-10-23T03:04:48.614Z,99931.13
2022-10-23T03:07:19.023Z,99919.75
2022-10-23T03:09:46.632Z,99916.84
2022-10-23T03:12:14.966Z,99913.56
2022-10-23T03:14:42.358Z,99910.53
2022-10-23T03:17:10.909Z,99918.00
2022-10-23T03:19:38.336Z,99910.94
2022-10-23T03:22:05.864Z,99922.19
2022-10-23T03:24:33.323Z,99924.31
2022-10-23T03:27:00.796Z,99929.94
2022-10-23T03:29:32.529Z,99930.84
2022-10-23T03:32:00.030Z,99939.94
2022-10-23T03:34:27.540Z,99934.59
2022-10-23T03:36:55.071Z,99942.84
2022-10-23T03:39:22.743Z,99950.94
2022-10-23T03:41:50.254Z,99941.63
2022-10-23T03:44:18.375Z,99946.63
2022-10-23T03:46:46.226Z,99946.03
2022-10-23T03:49:13.754Z,99946.69
2022-10-23T03:51:51.802Z,99962.91
2022-10-23T03:54:27.846Z,99969.25
2022-10-23T03:56:57.662Z,99966.63
2022-10-23T03:59:27.314Z,99961.56
2022-10-23T04:01:55.360Z,99949.81
2022-10-23T04:04:27.866Z,99950.53
2022-10-23T04:06:55.349Z,99950.72
2022-10-23T04:09:23.227Z,99941.13
2022-10-23T04:11:50.699Z,99938.69
2022-10-23T04:14:18.176Z,99948.50
2022-10-23T04:16:45.633Z,99948.69
2022-10-23T04:19:13.105Z,99935.97
2022-10-23T04:21:41.846Z,99943.44
2022-10-23T04:24:09.328Z,99953.47
2022-10-23T04:26:36.801Z,99955.00
2022-10-23T04:29:04.473Z,99942.78
2022-10-23T04:31:31.979Z,99938.00
2022-10-23T04:33:59.543Z,99936.66
2022-10-23T04:36:31.542Z,99948.50
2022-10-23T04:39:05.457Z,99957.13
2022-10-23T04:41:32.910Z,99949.06
2022-10-23T04:44:04.337Z,99939.84
2022-10-23T04:46:36.460Z,99960.41
2022-10-23T04:49:05.170Z,99946.03
2022-10-23T04:52:04.579Z,99953.72
2022-10-23T04:54:43.214Z,99956.13
2022-10-23T04:57:29.161Z,99968.66
2022-10-23T05:00:00.902Z,99972.94
2022-10-23T05:02:35.267Z,99972.63
2022-10-23T05:05:02.734Z,99976.22
2022-10-23T05:07:37.364Z,99981.69
2022-10-23T05:10:21.689Z,99979.53
2022-10-23T05:12:56.233Z,99977.88
2022-10-23T05:15:26.933Z,99980.78
2022-10-23T05:18:00.909Z,99980.63
2022-10-23T05:20:34.364Z,99979.84
2022-10-23T05:23:03.698Z,99978.41
2022-10-23T05:25:34.172Z,99982.75
2022-10-23T05:28:12.052Z,99969.72
2022-10-23T05:30:40.215Z,99990.22
2022-10-23T05:33:08.239Z,99987.38
2022-10-23T05:35:45.649Z,99993.47
2022-10-23T05:38:16.232Z,99983.19
2022-10-23T05:40:44.578Z,99974.25
2022-10-23T05:43:17.603Z,99977.09
2022-10-23T05:45:56.908Z,99996.63
2022-10-23T05:48:35.266Z,100004.75
2022-10-23T05:51:32.439Z,100014.72
2022-10-23T05:54:28.826Z,100013.75
2022-10-23T05:59:52.004Z,100035.75
2022-10-23T06:02:19.517Z,100036.13
2022-10-23T06:04:58.483Z,100047.97
2022-10-23T06:07:44.704Z,100039.47
2022-10-23T06:10:12.821Z,100043.81
2022-10-23T06:12:47.859Z,100034.22
2022-10-23T06:15:18.362Z,100038.41
2022-10-23T06:18:12.562Z,100050.63
2022-10-23T06:20:51.317Z,100054.53
2022-10-23T06:23:25.297Z,100058.50
2022-10-23T06:28:54.592Z,100062.06
2022-10-23T06:31:26.829Z,100068.72
2022-10-23T06:33:59.781Z,100067.69
2022-10-23T06:36:29.764Z,100077.88
2022-10-23T06:39:15.807Z,100068.84
2022-10-23T06:41:56.954Z,100078.34
2022-10-23T06:44:47.009Z,100073.75
2022-10-23T06:47:18.622Z,100084.09
2022-10-23T06:50:15.439Z,100085.03
2022-10-23T06:52:47.680Z,100085.06
2022-10-23T06:55:18.520Z,100084.97
2022-10-23T06:57:47.284Z,100088.78
2022-10-23T07:00:15.180Z,100089.50
2022-10-23T07:02:54.252Z,100098.66
2022-10-23T07:05:22.547Z,100092.22
2022-10-23T07:07:50.807Z,100089.09
2022-10-23T07:10:24.939Z,100084.66
2022-10-23T07:13:00.825Z,100094.09
2022-10-23T07:15:40.817Z,100094.03
2022-10-23T07:18:14.657Z,100097.34
2022-10-23T07:21:00.463Z,100095.81
2022-10-23T07:23:29.818Z,100097.75
2022-10-23T07:26:05.872Z,100087.59
2022-10-23T07:28:35.355Z,100085.63
2022-10-23T07:31:03.254Z,100082.97
2022-10-23T07:33:51.128Z,100087.63
2022-10-23T07:36:21.054Z,100087.22
2022-10-23T07:38:48.509Z,100088.16
2022-10-23T07:41:16.148Z,100079.09
2022-10-23T07:43:44.928Z,100082.09
2022-10-23T07:46:12.406Z,100074.56
2022-10-23T07:48:40.555Z,100070.34
2022-10-23T07:51:13.868Z,100069.63
2022-10-23T07:53:47.058Z,100078.72
2022-10-23T07:56:35.857Z,100093.00
2022-10-23T07:59:16.550Z,100083.03
2022-10-23T08:01:52.564Z,100085.03
2022-10-23T08:04:24.925Z,100091.72
2022-10-23T08:06:58.377Z,100093.34
2022-10-23T08:09:29.395Z,100080.63
2022-10-23T08:11:57.234Z,100094.44
2022-10-23T08:14:27.622Z,100090.28
2022-10-23T08:16:56.104Z,100093.38
2022-10-23T08:19:46.518Z,100093.00
2022-10-23T08:22:14.591Z,100091.88
2022-10-23T08:24:42.173Z,100101.84
2022-10-23T08:27:10.067Z,100103.41
2022-10-23T08:29:43.918Z,100093.84
2022-10-23T08:32:11.368Z,100089.59
2022-10-23T08:34:52.322Z,100083.13
2022-10-23T08:37:23.627Z,100099.97
2022-10-23T08:39:53.331Z,100095.34
2022-10-23T08:42:28.713Z,100102.28
2022-10-23T08:45:29.382Z,100102.28
2022-10-23T08:48:31.225Z,100094.97
2022-10-23T08:51:40.731Z,100089.63
2022-10-23T08:54:45.568Z,100094.94
2022-10-23T08:57:18.614Z,100103.75
2022-10-23T08:59:58.301Z,100100.69
2022-10-23T09:02:30.728Z,100106.06
2022-10-23T09:04:59.494Z,100099.53
2022-10-23T09:07:50.002Z,100106.09
2022-10-23T09:10:56.484Z,100114.09
2022-10-23T09:13:53.728Z,100098.38
2022-10-23T09:16:56.660Z,100103.72
2022-10-23T09:19:30.371Z,100087.56
2022-10-23T09:21:59.925Z,100084.13
2022-10-23T09:24:31.678Z,100084.09
2022-10-23T09:27:00.745Z,100079.13
2022-10-23T09:29:36.064Z,100080.59
2022-10-23T09:32:07.019Z,100079.06
2022-10-23T09:34:36.141Z,100089.81
2022-10-23T09:37:35.858Z,100082.47
2022-10-23T09:40:25.402Z,100083.19
2022-10-23T09:43:03.353Z,100084.31
2022-10-23T09:45:35.876Z,100077.81
2022-10-23T09:48:21.062Z,100072.28
2022-10-23T09:51:01.238Z,100061.69
2022-10-23T09:53:35.694Z,100072.28
2022-10-23T09:56:24.782Z,100056.47
2022-10-23T09:59:03.937Z,100059.94
2022-10-23T10:01:58.191Z,100048.53
2022-10-23T10:04:52.288Z,100056.19
2022-10-23T10:07:32.286Z,100054.31
2022-10-23T10:10:02.307Z,100054.31
2022-10-23T10:12:59.895Z,100047.88
2022-10-23T10:15:55.848Z,100045.41
2022-10-23T10:18:40.584Z,100040.78
2022-10-23T10:21:13.881Z,100022.59
2022-10-23T10:24:17.501Z,100025.50
2022-10-23T10:27:12.477Z,100026.78
2022-10-23T10:30:07.291Z,100020.38
2022-10-23T10:33:22.286Z,100015.75
2022-10-23T10:36:21.971Z,100010.13
2022-10-23T10:39:05.623Z,100013.88
2022-10-23T10:41:58.932Z,100010.72
2022-10-23T10:44:47.169Z,100001.63
2022-10-23T10:47:43.213Z,99999.63
2022-10-23T10:50:32.418Z,100000.97
2022-10-23T10:53:58.107Z,99992.44
2022-10-23T10:56:31.430Z,99994.81
2022-10-23T10:59:13.757Z,99994.91
2022-10-23T11:01:55.510Z,99991.31
2022-10-23T11:05:17.478Z,99988.03
2022-10-23T11:07:58.197Z,99982.31
2022-10-23T11:10:29.357Z,99983.13
2022-10-23T11:12:59.223Z,99976.88
2022-10-23T11:15:41.166Z,99982.38
2022-10-23T11:18:20.714Z,99973.47
2022-10-23T11:21:37.495Z,99980.56
2022-10-23T11:27:14.353Z,99970.81
2022-10-23T11:30:25.137Z,99957.91
2022-10-23T11:33:59.188Z,99963.66
2022-10-23T11:36:54.038Z,99954.53
2022-10-23T11:39:31.723Z,99944.69
2022-10-23T11:42:09.006Z,99940.81
2022-10-23T11:45:06.535Z,99940.97
2022-10-23T11:47:40.288Z,99942.13
2022-10-23T11:50:08.596Z,99947.75
2022-10-23T11:53:12.769Z,99944.06
2022-10-23T11:56:07.711Z,99938.97
2022-10-23T11:58:50.960Z,99937.28
2022-10-23T12:01:42.424Z,99944.28
2022-10-23T12:04:15.778Z,99930.78
2022-10-23T12:06:45.845Z,99930.31
2022-10-23T12:09:43.275Z,99913.94
2022-10-23T12:12:10.604Z,99910.66
2022-10-23T12:14:50.385Z,99919.16
2022-10-23T12:17:23.824Z,99912.84
2022-10-23T12:20:41.082Z,99919.19
2022-10-23T12:23:34.210Z,99925.66
2022-10-23T12:26:39.453Z,99921.66
2022-10-23T12:30:02.954Z,99929.03
2022-10-23T12:33:08.133Z,99925.41
2022-10-23T12:36:18.049Z,99933.13
2022-10-23T12:38:51.177Z,99927.19
2022-10-23T12:41:26.291Z,99913.16
2022-10-23T12:43:59.533Z,99911.69
2022-10-23T12:46:50.257Z,99902.34
2022-10-23T12:49:24.920Z,99904.81
2022-10-23T12:52:03.163Z,99915.88
2022-10-23T12:54:39.169Z,99921.66
2022-10-23T12:57:22.134Z,99912.88
2022-10-23T13:00:00.526Z,99911.50
2022-10-23T13:02:34.513Z,99905.97
2022-10-23T13:05:08.386Z,99906.69
2022-10-23T13:07:47.497Z,99918.06
2022-10-23T13:10:21.343Z,99902.69
2022-10-23T13:13:04.064Z,99915.34
2022-10-23T13:15:46.118Z,99903.56
2022-10-23T13:18:16.780Z,99905.38
2022-10-23T13:20:58.647Z,99912.13
2022-10-23T13:23:33.487Z,99917.97
2022-10-23T13:26:28.342Z,99922.75
2022-10-23T13:28:56.332Z,99921.09
2022-10-23T13:31:37.529Z,99930.41
2022-10-23T13:34:21.421Z,99923.53
2022-10-23T13:37:22.099Z,99929.22
2022-10-23T13:40:02.110Z,99931.84
2022-10-23T13:42:29.692Z,99929.88
2022-10-23T13:44:57.181Z,99933.50
2022-10-23T13:47:26.019Z,99937.72
2022-10-23T13:49:53.461Z,99941.13
2022-10-23T13:52:23.819Z,99939.91
2022-10-23T13:54:51.983Z,99937.88
2022-10-23T13:57:19.872Z,99935.28
2022-10-23T13:59:48.349Z,99931.25
2022-10-23T14:02:22.588Z,99925.06
2022-10-23T14:04:51.685Z,99924.44
2022-10-23T14:07:19.337Z,99933.72
2022-10-23T14:09:47.431Z,99941.31
2022-10-23T14:12:15.998Z,99933.88
2022-10-23T14:14:43.486Z,99939.69
2022-10-23T14:17:11.015Z,99933.88
2022-10-23T14:19:38.590Z,99935.41
2022-10-23T14:22:06.195Z,99927.72
2022-10-23T14:24:34.715Z,99938.00
2022-10-23T14:27:02.604Z,99938.22
2022-10-23T14:29:30.480Z,99939.75
2022-10-23T14:31:57.896Z,99936.16
2022-10-23T14:34:25.461Z,99941.81
2022-10-23T14:37:07.993Z,99940.94
2022-10-23T14:39:39.237Z,99944.34
2022-10-23T14:42:06.888Z,99944.22
2022-10-23T14:44:34.443Z,99951.81
2022-10-23T14:47:03.118Z,99954.72
2022-10-23T14:49:30.944Z,99962.22
2022-10-23T14:51:59.123Z,99953.34
2022-10-23T14:54:28.289Z,99962.81
2022-10-23T14:56:57.206Z,99965.78
2022-10-23T14:59:24.711Z,99969.34
2022-10-23T15:04:19.395Z,99962.38
2022-10-23T15:06:47.334Z,99963.59
2022-10-23T15:09:15.696Z,99959.66
2022-10-23T15:11:43.521Z,99963.28
2022-10-23T15:14:11.279Z,99958.16
2022-10-23T15:16:41.458Z,99950.97
2022-10-23T15:19:18.136Z,99964.97
2022-10-23T15:21:49.930Z,99957.44
2022-10-23T15:24:20.716Z,99949.41
2022-10-23T15:26:52.743Z,99953.25
2022-10-23T15:29:21.351Z,99950.63
2022-10-23T15:32:10.443Z,99950.66
2022-10-23T15:34:39.629Z,99943.75
2022-10-23T15:37:07.967Z,99952.16
2022-10-23T15:39:35.700Z,99950.63
2022-10-23T15:42:05.830Z,99949.84
2022-10-23T15:44:34.665Z,99953.66
2022-10-23T15:47:02.629Z,99967.44
2022-10-23T15:49:31.379Z,99975.03
2022-10-23T15:52:00.344Z,99981.91
2022-10-23T15:54:32.035Z,99986.41
2022-10-23T15:57:01.770Z,100003.13
2022-10-23T15:59:31.010Z,99999.25
2022-10-23T16:02:00.471Z,100012.94
2022-10-23T16:04:28.830Z,100023.72
2022-10-23T16:06:56.970Z,100030.75
2022-10-23T16:09:24.888Z,100037.28
2022-10-23T16:11:52.352Z,100040.06
2022-10-23T16:14:19.915Z,100040.84
2022-10-23T16:16:47.858Z,100039.09
2022-10-23T16:19:18.711Z,100036.66
2022-10-23T16:21:48.434Z,100029.00
2022-10-23T16:24:16.078Z,100034.19
2022-10-23T16:26:45.537Z,100027.25
2022-10-23T16:29:13.403Z,100032.78
2022-10-23T16:31:40.951Z,100039.59
2022-10-23T16:34:09.859Z,100039.72
2022-10-23T16:36:39.661Z,100037.03
2022-10-23T16:39:23.775Z,100046.84
2022-10-23T16:42:12.898Z,100049.59
2022-10-23T16:45:10.933Z,100054.16
2022-10-23T16:47:39.090Z,100057.06
2022-10-23T16:50:27.362Z,100056.03
2022-10-23T16:52:57.655Z,100060.84
2022-10-23T16:55:25.771Z,100069.38
2022-10-23T16:58:00.127Z,100067.06
2022-10-23T17:00:35.678Z,100070.22
2022-10-23T17:03:05.285Z,100075.34
2022-10-23T17:05:36.526Z,100079.81
2022-10-23T17:08:05.314Z,100086.03
2022-10-23T17:10:33.419Z,100076.72
2022-10-23T17:13:01.000Z,100080.16
2022-10-23T17:15:29.010Z,100084.66
2022-10-23T17:17:58.182Z,100079.00
2022-10-23T17:20:28.155Z,100086.13
2022-10-23T17:22:59.750Z,100075.69
2022-10-23T17:25:27.449Z,100079.13
2022-10-23T17:27:56.408Z,100079.13
2022-10-23T17:30:25.434Z,100086.41
2022-10-23T17:32:53.846Z,100088.19
2022-10-23T17:35:26.141Z,100096.22
2022-10-23T17:37:56.126Z,100092.03
2022-10-23T17:40:25.185Z,100098.41
2022-10-23T17:42:54.523Z,100099.69
2022-10-23T17:45:23.033Z,100102.78
2022-10-23T17:47:53.583Z,100116.66
2022-10-23T17:50:22.264Z,100134.53
2022-10-23T17:53:05.957Z,100142.34
2022-10-23T17:55:39.617Z,100148.31
2022-10-23T17:58:11.880Z,100141.72
2022-10-23T18:00:43.793Z,100127.09
2022-10-23T18:03:19.677Z,100140.19
2022-10-23T18:05:47.883Z,100128.56
2022-10-23T18:08:24.026Z,100150.50
2022-10-23T18:10:55.074Z,100150.91
2022-10-23T18:13:23.835Z,100141.81
2022-10-23T18:15:51.936Z,100147.25
2022-10-23T18:18:24.889Z,100147.59
2022-10-23T18:20:59.062Z,100142.97
2022-10-23T18:23:34.208Z,100159.00
2022-10-23T18:26:05.021Z,100163.16
2022-10-23T18:28:37.804Z,100161.31
2022-10-23T18:31:13.669Z,100159.81
2022-10-23T18:33:46.621Z,100153.34
2022-10-23T18:36:30.978Z,100148.19
2022-10-23T18:39:03.275Z,100154.94
2022-10-23T18:41:40.721Z,100154.84
2022-10-23T18:44:11.822Z,100150.13
2022-10-23T18:46:46.115Z,100161.00
2022-10-23T18:49:16.938Z,100161.72
2022-10-23T18:51:45.169Z,100157.34
2022-10-23T18:54:16.796Z,100156.31
2022-10-23T18:56:49.772Z,100157.72
2022-10-23T18:59:22.538Z,100165.69
2022-10-23T19:01:53.107Z,100164.00
2022-10-23T19:04:21.578Z,100175.75
2022-10-23T19:06:51.848Z,100180.16
2022-10-23T19:09:20.822Z,100184.53
2022-10-23T19:11:51.107Z,100172.69
2022-10-23T19:14:18.869Z,100175.22
2022-10-23T19:17:17.779Z,100177.94
2022-10-23T19:19:51.510Z,100173.13
2022-10-23T19:22:46.243Z,100184.34
2022-10-23T19:25:32.298Z,100180.97
2022-10-23T19:28:03.199Z,100181.41
2022-10-23T19:30:31.589Z,100182.19
2022-10-23T19:33:00.623Z,100181.44
2022-10-23T19:35:49.010Z,100180.81
2022-10-23T19:38:17.184Z,100190.41
2022-10-23T19:40:46.685Z,100194.28
2022-10-23T19:43:14.333Z,100205.34
2022-10-23T19:45:41.770Z,100206.06
2022-10-23T19:48:12.728Z,100207.28
2022-10-23T19:50:44.107Z,100202.78
2022-10-23T19:53:12.118Z,100190.09
2022-10-23T19:55:41.754Z,100198.34
2022-10-23T19:58:22.287Z,100210.38
2022-10-23T20:00:51.822Z,100217.47
2022-10-23T20:03:21.584Z,100212.09
2022-10-23T20:05:52.157Z,100210.09
2022-10-23T20:08:21.165Z,100211.16
2022-10-23T20:13:36.225Z,100194.78
2022-10-23T20:16:08.068Z,100200.75
2022-10-23T20:18:35.928Z,100213.38
2022-10-23T20:21:03.866Z,100216.66
2022-10-23T20:23:33.121Z,100218.84
2022-10-23T20:26:11.402Z,100220.78
2022-10-23T20:29:01.769Z,100222.09
2022-10-23T20:31:31.151Z,100226.22
2022-10-23T20:33:58.815Z,100236.03
2022-10-23T20:36:31.663Z,100232.75
2022-10-23T20:39:05.400Z,100229.13
2022-10-23T20:41:37.572Z,100227.13
2022-10-23T20:44:10.791Z,100221.66
2022-10-23T20:46:38.836Z,100220.72
2022-10-23T20:49:08.157Z,100219.44
2022-10-23T20:51:36.255Z,100220.97
2022-10-23T20:54:04.835Z,100227.91
2022-10-23T20:56:36.360Z,100234.25
2022-10-23T20:59:17.975Z,100230.84
2022-10-23T21:01:53.068Z,100233.91
2022-10-23T21:04:25.290Z,100234.00
2022-10-23T21:07:11.126Z,100228.69
2022-10-23T21:09:40.053Z,100230.47
2022-10-23T21:12:07.930Z,100230.19
2022-10-23T21:14:36.516Z,100226.47
2022-10-23T21:17:05.603Z,100219.81
2022-10-23T21:19:33.665Z,100216.44
2022-10-23T21:22:02.199Z,100223.75
2022-10-23T21:24:31.014Z,100232.50
2022-10-23T21:26:58.476Z,100230.59
2022-10-23T21:29:25.972Z,100227.69
2022-10-23T21:31:56.121Z,100232.16
2022-10-23T21:34:25.686Z,100226.09
2022-10-23T21:37:12.609Z,100226.75
2022-10-23T21:39:41.626Z,100227.78
2022-10-23T21:42:10.977Z,100225.38
2022-10-23T21:44:38.461Z,100219.91
2022-10-23T21:47:06.237Z,100219.78
2022-10-23T21:49:33.789Z,100215.75
2022-10-23T21:52:01.312Z,100224.91
2022-10-23T21:54:28.791Z,100224.00
2022-10-23T21:56:56.364Z,100220.91
2022-10-23T21:59:30.147Z,100216.75
2022-10-23T22:02:00.204Z,100220.16
2022-10-23T22:04:27.834Z,100222.78
2022-10-23T22:06:55.380Z,100223.84
2022-10-23T22:09:23.747Z,100219.19
2022-10-23T22:11:53.364Z,100213.91
2022-10-23T22:14:21.880Z,100207.22
2022-10-23T22:16:49.575Z,100215.59
2022-10-23T22:19:19.936Z,100216.84
2022-10-23T22:21:49.037Z,100214.31
2022-10-23T22:24:21.222Z,100212.97
2022-10-23T22:26:53.458Z,100210.59
2022-10-23T22:29:24.634Z,100216.84
2022-10-23T22:31:55.245Z,100214.44
2022-10-23T22:34:59.013Z,100206.22
2022-10-23T22:37:16.836Z,100212.75
2022-10-23T22:39:44.279Z,100211.66
2022-10-23T22:42:11.756Z,100206.91
2022-10-23T22:44:39.204Z,100218.09
2022-10-23T22:47:06.887Z,100220.66
2022-10-23T22:49:34.484Z,100222.41
2022-10-23T22:52:02.711Z,100222.34
2022-10-23T22:54:31.409Z,100218.78
2022-10-23T22:56:59.153Z,100221.56
2022-10-23T22:59:26.672Z,100227.47
2022-10-23T23:01:54.107Z,100223.75
2022-10-23T23:04:38.323Z,100223.28
2022-10-23T23:07:08.903Z,100229.16
2022-10-23T23:09:41.712Z,100228.81
2022-10-23T23:12:12.046Z,100227.75
2022-10-23T23:14:40.688Z,100224.19
2022-10-23T23:17:09.748Z,100220.88
2022-10-23T23:19:37.289Z,100224.44
2022-10-23T23:22:05.698Z,100227.91
2022-10-23T23:24:33.331Z,100220.47
2022-10-23T23:27:00.770Z,100229.59
2022-10-23T23:29:29.612Z,100228.69
2022-10-23T23:31:57.220Z,100235.56
2022-10-23T23:34:24.690Z,100232.13
2022-10-23T23:36:52.297Z,100233.34
2022-10-23T23:39:19.800Z,100237.59
2022-10-23T23:41:47.195Z,100245.72
2022-10-23T23:44:14.923Z,100252.41
2022-10-23T23:46:42.351Z,100252.69
2022-10-23T23:49:09.842Z,100250.31
2022-10-23T23:51:37.345Z,100248.16
2022-10-23T23:54:05.267Z,100246.63
2022-10-23T23:56:32.797Z,100250.63
2022-10-23T23:59:00.257Z,100245.53
